Barcelona Knutsen — EACW — position and weather

sailwx.info

Track history (hours):
 
Tides and Currents Weather Stations Pressure Air Temp Water Temp Dewpoint Dewpoint Depression Visibility Wind Speed Wind Dir Waves Ship Positions

Barcelona Knutsen

Last reported at 2015-Mar-22 11:09 UTC. Time now 2015-Mar-29 04:29 UTC.
Position N 34°38' E 140°10'.

Length 290 m; draft 10 m.

Type: Ship (hazmat cat B). MMSI: 224436000.

Date/timePositionNaut miles runAvg speedWind from/ knotsBaromVisibWave heightAir tempDewpointWater temp
2015-Mar-22 11:09N 34°38' E 140°10'1220.7
2015-Mar-22 10:34N 34°40' E 139°56'1716.7
2015-Mar-22 09:33N 34°52' E 139°41'1717.5
2015-Mar-22 08:33N 35°09' E 139°45'1111.3
2015-Mar-22 07:33N 35°20' E 139°43'5 5.2
2015-Mar-22 06:33N 35°21' E 139°49'1 0.9
2015-Mar-22 05:31N 35°21' E 139°49'0 0.0
2015-Mar-22 04:28N 35°21' E 139°49'0 0.0
2015-Mar-22 03:31N 35°21' E 139°49'0 0.0
2015-Mar-22 02:31N 35°21' E 139°49'0 0.0
2015-Mar-22 01:31N 35°21' E 139°49'0 0.0
2015-Mar-22 00:31N 35°21' E 139°49'0 0.0
2015-Mar-21 23:31N 35°21' E 139°49'0 0.0
2015-Mar-21 22:31N 35°21' E 139°49'0 0.0
2015-Mar-21 21:31N 35°21' E 139°49'0 0.0
2015-Mar-21 20:31N 35°21' E 139°49'0 0.0
2015-Mar-21 19:32N 35°21' E 139°49'0 0.0
2015-Mar-21 18:32N 35°21' E 139°49'0 0.0
2015-Mar-21 17:32N 35°21' E 139°49'0 0.0
2015-Mar-21 16:32N 35°21' E 139°49'0 0.0
2015-Mar-21 15:32N 35°21' E 139°49'0 0.0
2015-Mar-21 14:32N 35°21' E 139°49'0 0.0
2015-Mar-21 13:32N 35°21' E 139°49'0 0.0
2015-Mar-21 12:32N 35°21' E 139°49'0 0.0
2015-Mar-21 11:32N 35°21' E 139°49'0 0.0
2015-Mar-21 10:32N 35°21' E 139°49'0 0.0
2015-Mar-21 09:32N 35°21' E 139°49'0 0.0
2015-Mar-21 08:32N 35°21' E 139°49'0 0.0
2015-Mar-21 07:32N 35°21' E 139°49'0 0.0
2015-Mar-21 06:32N 35°21' E 139°49'0 0.0
2015-Mar-21 05:26N 35°21' E 139°49'0 0.0
2015-Mar-21 04:26N 35°21' E 139°49'0 0.1
2015-Mar-21 03:33N 35°21' E 139°49'3 3.5
2015-Mar-21 02:33N 35°22' E 139°46'8 8.4
2015-Mar-21 01:33N 35°14' E 139°47'1111.3
2015-Mar-21 00:33N 35°03' E 139°45'1413.3
2015-Mar-20 23:31N 34°49' E 139°43'  
2015-Mar-14 05:32N 01°16' E 104°13'1818.1
2015-Mar-14 04:33N 01°13' E 103°55'16 1.2
2015-Mar-13 15:33N 01°12' E 103°40'1 0.1
2015-Mar-13 05:30N 01°12' E 103°39'7013.3
2015-Mar-13 00:14N 01°42' E 102°36'1918.3
2015-Mar-12 23:12N 01°50' E 102°19'  
Track history (hours):
 
Tides and Currents Weather Stations Pressure Air Temp Water Temp Dewpoint Dewpoint Depression Visibility Wind Speed Wind Dir Waves Ship Positions

Barcelona Knutsen

Last reported at 2015-Mar-22 11:09 UTC. Time now 2015-Mar-29 04:29 UTC.
Position N 34°38' E 140°10'.

Length 290 m; draft 10 m.

Type: Ship (hazmat cat B). MMSI: 224436000.

Date/timePositionNaut miles runAvg speedWind from/ knotsBaromVisibWave heightAir tempDewpointWater temp
2015-Mar-22 11:09N 34°38' E 140°10'1220.7
2015-Mar-22 10:34N 34°40' E 139°56'1716.7
2015-Mar-22 09:33N 34°52' E 139°41'1717.5
2015-Mar-22 08:33N 35°09' E 139°45'1111.3
2015-Mar-22 07:33N 35°20' E 139°43'5 5.2
2015-Mar-22 06:33N 35°21' E 139°49'1 0.9
2015-Mar-22 05:31N 35°21' E 139°49'0 0.0
2015-Mar-22 04:28N 35°21' E 139°49'0 0.0
2015-Mar-22 03:31N 35°21' E 139°49'0 0.0
2015-Mar-22 02:31N 35°21' E 139°49'0 0.0
2015-Mar-22 01:31N 35°21' E 139°49'0 0.0
2015-Mar-22 00:31N 35°21' E 139°49'0 0.0
2015-Mar-21 23:31N 35°21' E 139°49'0 0.0
2015-Mar-21 22:31N 35°21' E 139°49'0 0.0
2015-Mar-21 21:31N 35°21' E 139°49'0 0.0
2015-Mar-21 20:31N 35°21' E 139°49'0 0.0
2015-Mar-21 19:32N 35°21' E 139°49'0 0.0
2015-Mar-21 18:32N 35°21' E 139°49'0 0.0
2015-Mar-21 17:32N 35°21' E 139°49'0 0.0
2015-Mar-21 16:32N 35°21' E 139°49'0 0.0
2015-Mar-21 15:32N 35°21' E 139°49'0 0.0
2015-Mar-21 14:32N 35°21' E 139°49'0 0.0
2015-Mar-21 13:32N 35°21' E 139°49'0 0.0
2015-Mar-21 12:32N 35°21' E 139°49'0 0.0
2015-Mar-21 11:32N 35°21' E 139°49'0 0.0
2015-Mar-21 10:32N 35°21' E 139°49'0 0.0
2015-Mar-21 09:32N 35°21' E 139°49'0 0.0
2015-Mar-21 08:32N 35°21' E 139°49'0 0.0
2015-Mar-21 07:32N 35°21' E 139°49'0 0.0
2015-Mar-21 06:32N 35°21' E 139°49'0 0.0
2015-Mar-21 05:26N 35°21' E 139°49'0 0.0
2015-Mar-21 04:26N 35°21' E 139°49'0 0.1
2015-Mar-21 03:33N 35°21' E 139°49'3 3.5
2015-Mar-21 02:33N 35°22' E 139°46'8 8.4
2015-Mar-21 01:33N 35°14' E 139°47'1111.3
2015-Mar-21 00:33N 35°03' E 139°45'1413.3
2015-Mar-20 23:31N 34°49' E 139°43'  
2015-Mar-14 05:32N 01°16' E 104°13'1818.1
2015-Mar-14 04:33N 01°13' E 103°55'16 1.2
2015-Mar-13 15:33N 01°12' E 103°40'1 0.1
2015-Mar-13 05:30N 01°12' E 103°39'7013.3
2015-Mar-13 00:14N 01°42' E 102°36'1918.3
2015-Mar-12 23:12N 01°50' E 102°19'  

Dump ship's entire track history